Estación municipal de Seva (Osona, P.N. del Montseny)

Consulta los datos en tiempo real de la estación municipal de Seva





Hora UTC 04:40
Temperatura 18.7 ºC
Suelo 15 cm 16.4 ºC
Humedad 70.7 %
Presión 1024.8 hPa
Pluja 0.0 mm
Velocidad viento 0.6 km/h
Dirección viento ENE
Radiación solar 0.1 W/m²

Webcam

Datos diarios 2026-09-06



Hora UTC (invierno +1h; verano +2h)
Temperatura (ºC) Humedad (%) Presión (hPa) Velocidad viento (km/h) Precipitación (mm) Radiación solar (W/m²)
Hora UTC Aire Suelo 15 cm Humedad Presión Vel. Dir. Vel. Max Dir. Intent. máx 5 min. Rad. Sol.
00:05 20.8 18.7 59.4 1025.7 0.0 NNE 0.0 S 0.0 0.0
00:10 20.8 18.7 59.1 1025.7 0.0 NNE 0.0 NE 0.0 0.1
00:15 20.7 18.5 59.1 1025.7 0.8 ENE 2.8 NE 0.0 0.0
00:20 20.6 18.4 59.3 1025.7 3.5 ENE 4.6 ENE 0.0 0.1
00:25 20.5 18.4 59.9 1025.7 2.6 ENE 4.2 NE 0.0 0.0
00:30 20.5 18.4 60.6 1025.6 2.8 E 3.9 ESE 0.0 0.1
00:35 20.4 18.3 60.9 1025.6 3.2 ENE 3.9 E 0.0 0.1
00:40 20.4 18.3 60.9 1025.5 3.5 E 4.6 E 0.0 0.0
00:45 20.3 18.4 61.1 1025.5 3.0 ESE 3.9 E 0.0 0.0
00:50 20.3 18.3 61.2 1025.5 2.9 ENE 3.9 ENE 0.0 0.0
00:55 20.2 18.2 62.2 1025.5 1.2 ESE 2.8 E 0.0 0.0
01:00 20.1 18.0 62.5 1025.5 0.3 SSE 1.8 SSE 0.0 0.1
01:05 20.0 17.8 62.6 1025.5 0.4 SSE 1.8 SSE 0.0 0.1
01:10 20.0 17.8 62.5 1025.4 0.0 NNE 0.0 SSE 0.0 0.1
01:15 20.1 17.8 62.4 1025.5 0.2 ENE 1.8 ENE 0.0 0.0
01:20 20.1 17.8 62.8 1025.5 0.8 NE 2.1 NE 0.0 0.1
01:25 20.0 17.7 63.2 1025.4 2.0 NE 3.2 NNE 0.0 0.1
01:30 20.0 17.7 63.3 1025.4 2.8 NE 3.9 NE 0.0 0.1
01:35 20.0 17.7 63.4 1025.4 3.1 NE 4.6 NE 0.0 0.1
01:40 20.1 17.7 63.3 1025.4 3.4 NE 4.9 NE 0.0 0.1
01:45 20.1 17.8 63.5 1025.4 3.2 NNE 4.6 NE 0.0 0.1
01:50 20.2 17.8 63.7 1025.3 1.9 NE 4.2 NNE 0.0 0.1
01:55 20.1 17.8 63.4 1025.3 1.2 E 2.5 ENE 0.0 0.1
02:00 19.9 17.7 64.1 1025.3 0.0 SE 1.1 SE 0.0 0.1
02:05 19.7 17.5 65.2 1025.3 0.5 ESE 1.8 ENE 0.0 0.1
02:10 19.6 17.4 65.7 1025.3 1.8 ENE 2.8 E 0.0 0.1
02:15 19.6 17.4 65.8 1025.3 4.1 ENE 5.3 E 0.0 0.0
02:20 19.5 17.4 65.5 1025.3 3.8 ENE 4.6 ENE 0.0 0.1
02:25 19.5 17.5 65.4 1025.2 3.3 ENE 4.2 ENE 0.0 0.1
02:30 19.5 17.5 65.5 1025.2 4.3 ENE 4.9 ENE 0.0 0.1
02:35 19.4 17.5 65.6 1025.2 4.6 ENE 6.0 E 0.0 0.1
02:40 19.4 17.4 65.7 1025.2 4.6 ENE 5.6 E 0.0 0.0
02:45 19.5 17.4 65.5 1025.2 2.9 ENE 4.6 ENE 0.0 0.1
02:50 19.5 17.2 66.0 1025.2 1.8 ENE 4.2 NNE 0.0 0.1
02:55 19.5 17.3 66.1 1025.2 1.9 E 2.8 E 0.0 0.1
03:00 19.4 17.3 67.0 1025.1 1.0 ESE 2.5 E 0.0 0.1
03:05 19.4 17.2 66.9 1025.2 0.1 S 1.4 S 0.0 0.0
03:10 19.3 17.1 67.2 1025.2 0.0 NNE 0.0 S 0.0 0.0
03:15 19.1 16.9 67.8 1025.2 0.0 NNE 0.0 SSE 0.0 0.1
03:20 19.0 16.7 68.1 1025.1 0.8 SE 1.8 SE 0.0 0.1
03:25 18.9 16.6 68.4 1025.1 0.1 ESE 1.1 ESE 0.0 0.1
03:30 18.8 16.5 68.7 1025.1 0.1 ESE 1.4 ESE 0.0 0.0
03:35 18.7 16.4 68.5 1025.1 0.0 NNE 1.1 NNE 0.0 0.1
03:40 18.7 16.4 68.8 1025.1 2.2 NE 3.2 NE 0.0 0.1
03:45 18.7 16.4 69.7 1025.0 2.0 E 3.5 ENE 0.0 0.1
03:50 18.8 16.4 67.7 1025.0 0.8 NE 2.1 ENE 0.0 0.1
03:55 18.8 16.6 67.8 1025.0 1.3 ENE 2.8 E 0.0 0.1
04:00 18.7 16.5 67.8 1025.0 3.5 E 5.3 ENE 0.0 0.1
04:05 18.7 16.5 67.8 1024.9 3.4 ENE 4.9 E 0.0 0.0
04:10 19.0 16.5 68.3 1024.9 3.2 ENE 4.9 NNE 0.0 0.0
04:15 19.0 16.6 68.9 1024.9 2.8 ENE 3.9 ENE 0.0 0.1
04:20 19.0 16.5 69.9 1024.9 2.1 ENE 3.5 E 0.0 0.0
04:25 18.9 16.6 70.8 1024.9 2.4 E 3.2 ESE 0.0 0.1
04:30 18.9 16.5 71.3 1024.9 1.9 E 2.8 E 0.0 0.1
04:35 18.9 16.6 71.5 1024.9 2.1 E 3.2 ESE 0.0 0.1
04:40 18.7 16.4 70.7 1024.8 0.6 ENE 2.5 E 0.0 0.1
Máxima 20.8 18.7 71.5 1025.7 4.6 ENE 6.0 E 0.0 0.1
Mínima 18.7 16.4 59.1 1024.8
Total 0.0